createdAt,value
2019-03-09T00:04:38.095Z,7.18
2019-03-09T00:09:39.683Z,7.20
2019-03-09T00:14:41.266Z,7.21
2019-03-09T00:19:42.801Z,7.21
2019-03-09T00:24:45.272Z,7.24
2019-03-09T00:29:46.868Z,7.27
2019-03-09T00:34:48.484Z,7.31
2019-03-09T00:39:50.520Z,7.32
2019-03-09T00:44:52.116Z,7.34
2019-03-09T00:49:54.066Z,7.34
2019-03-09T00:54:55.667Z,7.38
2019-03-09T00:59:57.542Z,7.44
2019-03-09T01:04:59.120Z,7.49
2019-03-09T01:10:01.054Z,7.52
2019-03-09T01:15:03.673Z,7.53
2019-03-09T01:20:07.426Z,7.55
2019-03-09T01:25:09.278Z,7.61
2019-03-09T01:30:14.952Z,7.64
2019-03-09T01:35:16.564Z,7.67
2019-03-09T01:40:18.157Z,7.67
2019-03-09T01:45:19.803Z,7.73
2019-03-09T01:50:21.396Z,7.72
2019-03-09T01:55:23.030Z,7.75
2019-03-09T02:00:24.625Z,7.78
2019-03-09T02:05:26.218Z,7.83
2019-03-09T02:10:28.123Z,7.81
2019-03-09T02:15:30.198Z,7.83
2019-03-09T02:20:31.825Z,7.87
2019-03-09T02:25:33.446Z,7.89
2019-03-09T02:30:35.066Z,7.93
2019-03-09T02:35:37.496Z,7.95
2019-03-09T02:40:39.184Z,7.99
2019-03-09T02:45:41.288Z,8.02
2019-03-09T02:50:43.618Z,8.05
2019-03-09T02:55:45.195Z,8.09
2019-03-09T03:00:46.735Z,8.14
2019-03-09T03:05:48.410Z,8.20
2019-03-09T03:10:49.962Z,8.28
2019-03-09T03:15:51.610Z,8.33
2019-03-09T03:20:53.239Z,8.42
2019-03-09T03:25:54.789Z,8.50
2019-03-09T03:30:56.436Z,8.50
2019-03-09T03:35:58.054Z,8.47
2019-03-09T03:40:59.649Z,8.35
2019-03-09T03:46:01.337Z,8.25
2019-03-09T03:51:02.969Z,8.18
2019-03-09T03:56:04.530Z,8.12
2019-03-09T04:01:06.118Z,8.08
2019-03-09T04:06:07.724Z,8.11
2019-03-09T04:11:09.795Z,8.08
2019-03-09T04:16:11.357Z,8.08
2019-03-09T04:21:12.982Z,8.06
2019-03-09T04:26:14.962Z,8.05
2019-03-09T04:31:16.599Z,8.03
2019-03-09T04:36:18.580Z,7.98
2019-03-09T04:41:20.177Z,7.95
2019-03-09T04:46:21.997Z,7.97
2019-03-09T04:51:24.229Z,8.06
2019-03-09T04:56:25.889Z,8.06
2019-03-09T05:01:27.628Z,8.12
2019-03-09T05:06:29.221Z,8.11
2019-03-09T05:11:31.610Z,8.11
2019-03-09T05:16:33.230Z,8.10
2019-03-09T05:21:35.538Z,8.12
2019-03-09T05:26:37.171Z,8.15
2019-03-09T05:31:38.852Z,8.13
2019-03-09T05:36:40.823Z,8.18
2019-03-09T05:41:42.439Z,8.21
2019-03-09T05:46:44.053Z,8.21
2019-03-09T05:52:24.745Z,8.28
2019-03-09T05:57:26.283Z,8.26
2019-03-09T06:02:28.307Z,8.27
2019-03-09T06:07:30.125Z,8.25
2019-03-09T06:12:31.759Z,8.23
2019-03-09T06:17:33.434Z,8.23
2019-03-09T06:22:35.447Z,8.23
2019-03-09T06:27:37.063Z,8.22
2019-03-09T06:33:34.909Z,8.35
2019-03-09T06:38:46.929Z,8.39
2019-03-09T06:43:48.523Z,8.49
2019-03-09T06:48:50.137Z,8.51
2019-03-09T06:53:51.779Z,8.55
2019-03-09T06:58:53.439Z,8.64
2019-03-09T07:03:55.055Z,8.64
2019-03-09T07:08:56.696Z,8.69
2019-03-09T07:14:35.908Z,8.72
2019-03-09T07:19:38.295Z,8.70
2019-03-09T07:24:40.087Z,8.74
2019-03-09T07:29:41.774Z,8.77
2019-03-09T07:34:44.359Z,8.84
2019-03-09T07:39:45.992Z,8.85
2019-03-09T07:44:47.576Z,8.85
2019-03-09T07:49:49.165Z,8.89
2019-03-09T07:54:52.139Z,8.92
2019-03-09T07:59:54.518Z,8.99
2019-03-09T08:04:56.169Z,9.01
2019-03-09T08:09:57.876Z,9.11
2019-03-09T08:14:59.578Z,9.08
2019-03-09T08:20:01.197Z,9.20
2019-03-09T08:25:03.980Z,9.36
2019-03-09T08:30:08.972Z,9.39
2019-03-09T08:35:10.731Z,9.41
2019-03-09T08:40:12.629Z,9.35
2019-03-09T08:45:15.491Z,9.30
2019-03-09T08:50:18.522Z,9.22
2019-03-09T08:55:20.094Z,9.28
2019-03-09T09:00:23.958Z,9.25
2019-03-09T09:05:25.519Z,9.29
2019-03-09T09:10:28.070Z,9.44
2019-03-09T09:15:30.588Z,9.63
2019-03-09T09:20:32.185Z,9.84
2019-03-09T09:25:33.760Z,9.84
2019-03-09T09:30:35.722Z,9.94
2019-03-09T09:35:37.343Z,9.97
2019-03-09T09:40:39.346Z,10.06
2019-03-09T09:45:40.935Z,10.13
2019-03-09T09:50:42.532Z,10.28
2019-03-09T09:55:44.180Z,10.58
2019-03-09T10:00:46.200Z,10.67
2019-03-09T10:05:47.920Z,10.80
2019-03-09T10:10:49.469Z,10.77
2019-03-09T10:15:51.157Z,11.03
2019-03-09T10:20:53.162Z,11.49
2019-03-09T10:25:54.739Z,11.71
2019-03-09T10:30:56.436Z,11.54
2019-03-09T10:35:58.526Z,11.67
2019-03-09T10:41:00.270Z,11.64
2019-03-09T10:46:01.934Z,11.85
2019-03-09T10:51:03.588Z,12.03
2019-03-09T10:56:05.236Z,11.92
2019-03-09T11:01:07.290Z,12.12
2019-03-09T11:06:09.046Z,12.21
2019-03-09T11:11:10.634Z,12.27
2019-03-09T11:16:12.245Z,12.42
2019-03-09T11:21:13.939Z,12.54
2019-03-09T11:26:16.211Z,12.33
2019-03-09T11:31:18.263Z,12.18
2019-03-09T11:36:20.259Z,12.40
2019-03-09T11:41:21.844Z,12.46
2019-03-09T11:46:23.456Z,11.89
2019-03-09T11:51:25.358Z,11.39
2019-03-09T11:56:26.930Z,11.45
2019-03-09T12:01:28.525Z,11.50
2019-03-09T12:06:30.221Z,11.46
2019-03-09T12:11:31.920Z,11.53
2019-03-09T12:16:33.502Z,11.73
2019-03-09T12:21:35.451Z,11.94
2019-03-09T12:26:37.095Z,11.92
2019-03-09T12:31:38.729Z,11.90
2019-03-09T12:36:40.342Z,11.86
2019-03-09T12:41:41.974Z,11.85
2019-03-09T12:46:43.613Z,12.07
2019-03-09T12:51:45.205Z,11.86
2019-03-09T12:56:46.853Z,12.01
2019-03-09T13:01:48.571Z,12.22
2019-03-09T13:06:50.245Z,12.09
2019-03-09T13:11:51.978Z,11.88
2019-03-09T13:16:53.560Z,11.86
2019-03-09T13:21:55.263Z,11.63
2019-03-09T13:26:57.002Z,11.41
2019-03-09T13:31:58.688Z,11.16
2019-03-09T13:37:00.282Z,11.09
2019-03-09T13:42:02.021Z,11.04
2019-03-09T13:47:04.402Z,10.91
2019-03-09T13:52:06.418Z,11.01
2019-03-09T13:57:08.711Z,11.06
2019-03-09T14:02:10.457Z,10.95
2019-03-09T14:07:12.433Z,11.03
2019-03-09T14:12:15.738Z,10.88
2019-03-09T14:17:17.469Z,10.73
2019-03-09T14:22:19.527Z,11.00
2019-03-09T14:27:21.124Z,10.85
2019-03-09T14:32:22.746Z,10.47
2019-03-09T14:37:24.429Z,10.33
2019-03-09T14:42:25.966Z,10.44
2019-03-09T14:47:28.134Z,10.67
2019-03-09T14:52:29.727Z,10.93
2019-03-09T14:57:31.772Z,10.98
2019-03-09T15:02:34.854Z,10.75
2019-03-09T15:07:36.449Z,9.34
2019-03-09T15:12:38.065Z,8.75
2019-03-09T15:17:39.698Z,8.44
2019-03-09T15:22:42.047Z,8.38
2019-03-09T15:27:45.708Z,8.42
2019-03-09T15:32:47.341Z,8.45
2019-03-09T15:37:49.251Z,8.56
2019-03-09T15:42:50.926Z,8.72
2019-03-09T15:47:52.968Z,8.93
2019-03-09T15:52:54.623Z,8.97
2019-03-09T15:57:56.501Z,9.10
2019-03-09T16:02:58.534Z,9.04
2019-03-09T16:08:00.192Z,8.98
2019-03-09T16:13:02.163Z,9.00
2019-03-09T16:18:03.887Z,9.19
2019-03-09T16:23:05.991Z,9.38
2019-03-09T16:28:08.656Z,9.45
2019-03-09T16:33:10.236Z,9.50
2019-03-09T16:38:11.822Z,9.64
2019-03-09T16:43:13.719Z,9.74
2019-03-09T16:48:15.369Z,9.58
2019-03-09T16:53:16.981Z,9.57
2019-03-09T16:58:18.670Z,9.37
2019-03-09T17:03:20.372Z,9.26
2019-03-09T17:08:22.082Z,9.14
2019-03-09T17:13:23.754Z,8.98
2019-03-09T17:18:25.415Z,8.90
2019-03-09T17:23:27.037Z,8.84
2019-03-09T17:28:28.658Z,8.75
2019-03-09T17:33:30.350Z,8.67
2019-03-09T17:38:35.997Z,8.58
2019-03-09T17:43:37.803Z,8.51
2019-03-09T17:48:39.533Z,8.47
2019-03-09T17:53:41.202Z,8.40
2019-03-09T17:58:42.912Z,8.36
2019-03-09T18:03:46.193Z,8.30
2019-03-09T18:08:47.932Z,8.24
2019-03-09T18:13:50.971Z,8.18
2019-03-09T18:18:52.758Z,8.10
2019-03-09T18:23:54.474Z,8.10
2019-03-09T18:28:58.684Z,8.05
2019-03-09T18:34:00.740Z,8.01
2019-03-09T18:39:04.598Z,8.04
2019-03-09T18:44:06.198Z,8.07
2019-03-09T18:49:08.464Z,8.11
2019-03-09T19:32:34.691Z,7.37
2019-03-09T19:37:36.661Z,7.29
2019-03-09T19:42:39.385Z,7.54
2019-03-09T19:47:43.049Z,7.78
2019-03-09T19:52:44.964Z,7.77
2019-03-09T19:57:46.560Z,7.88
2019-03-09T20:02:48.200Z,7.94
2019-03-09T20:07:49.849Z,8.00
2019-03-09T20:12:51.444Z,7.99
2019-03-09T20:17:53.620Z,8.00
2019-03-09T20:22:55.436Z,8.07
2019-03-09T20:27:57.147Z,8.08
2019-03-09T20:32:58.799Z,8.10
2019-03-09T20:38:00.532Z,8.10
2019-03-09T20:43:02.195Z,8.11
2019-03-09T20:48:03.797Z,8.11
2019-03-09T20:53:07.424Z,8.05
2019-03-09T20:58:09.110Z,8.02
2019-03-09T21:03:11.587Z,7.98
2019-03-09T21:08:13.563Z,7.95
2019-03-09T21:13:15.221Z,7.88
2019-03-09T21:18:17.410Z,7.83
2019-03-09T21:23:19.181Z,7.82
2019-03-09T21:28:21.353Z,7.83
2019-03-09T21:33:23.357Z,7.76
2019-03-09T21:38:24.921Z,7.75
2019-03-09T21:43:34.916Z,7.79
2019-03-09T21:48:36.871Z,7.72
2019-03-09T21:53:38.477Z,7.73
2019-03-09T21:58:40.644Z,7.67
2019-03-09T22:03:42.335Z,7.67
2019-03-09T22:08:43.973Z,7.63
2019-03-09T22:13:45.753Z,7.56
2019-03-09T22:18:47.489Z,7.54
2019-03-09T22:23:49.510Z,7.56
2019-03-09T22:28:51.156Z,7.49
2019-03-09T22:33:52.748Z,7.50
2019-03-09T22:38:54.698Z,7.52
2019-03-09T22:43:56.534Z,7.50
2019-03-09T22:48:58.157Z,7.53
2019-03-09T22:53:59.882Z,7.60
2019-03-09T22:59:01.459Z,7.60
2019-03-09T23:04:03.388Z,7.58
2019-03-09T23:09:05.279Z,7.58
2019-03-09T23:14:06.913Z,7.57
2019-03-09T23:19:08.500Z,7.53
2019-03-09T23:24:10.244Z,7.50
2019-03-09T23:29:12.245Z,7.45
2019-03-09T23:34:13.883Z,7.49
2019-03-09T23:39:15.442Z,7.46
2019-03-09T23:44:17.082Z,7.47
2019-03-09T23:49:19.016Z,7.45
2019-03-09T23:54:20.966Z,7.42
2019-03-09T23:59:24.055Z,7.40
